This is the latest recevied weather packets stored in our database for station/object OE-11179. If no packets are shown the sender has not sent any weather packets the latest 10 day(s).
| Time | Temp. | Humidity | Pressure | Rain* | Wind** | Luminosity | Snow |
|---|---|---|---|---|---|---|---|
| 1787828732 | 25.56° C | 49% | - | 0 mm | - | - | - |
| 1787828132 | 25.56° C | 46% | - | 0 mm | - | - | - |
| 1787827304 | 25° C | 52% | - | 0 mm | - | - | - |
| 1787826931 | 24.44° C | 50% | - | 0 mm | - | - | - |
| 1787826332 | 23.89° C | 59% | - | 0 mm | - | - | - |
| 1787825505 | 23.89° C | 55% | - | 0 mm | - | - | - |
| 1787825132 | 23.33° C | 55% | - | 0 mm | - | - | - |
| 1787824532 | 22.22° C | 60% | - | 0 mm | - | - | - |
| 1787823705 | 22.78° C | 58% | - | 0 mm | - | - | - |
| 1787823332 | 21.67° C | 64% | - | 0 mm | - | - | - |
| 1787822731 | 21.67° C | 60% | - | 0 mm | - | - | - |
| 1787821905 | 21.11° C | 65% | - | 0 mm | - | - | - |
| 1787821531 | 20.56° C | 65% | - | 0 mm | - | - | - |
| 1787820932 | 21.11° C | 64% | - | 0 mm | - | - | - |
| 1787820105 | 20.56° C | 68% | - | 0 mm | - | - | - |
| 1787819732 | 19.44° C | 70% | - | 0 mm | - | - | - |
| 1787819132 | 18.89° C | 75% | - | 0 mm | - | - | - |
| 1787818305 | 18.33° C | 76% | - | 0 mm | - | - | - |
| 1787817931 | 18.33° C | 77% | - | 0 mm | - | - | - |
| 1787817331 | 17.78° C | 84% | - | 0 mm | - | - | - |
| 1787816504 | 17.22° C | 83% | - | 0 mm | - | - | - |
| 1787816131 | 16.11° C | 84% | - | 0 mm | - | - | - |
| 1787815526 | 16.11° C | 84% | - | 0 mm | - | - | - |
| 1787814705 | 15.56° C | 87% | - | 0 mm | - | - | - |
| 1787814332 | 14.44° C | 92% | - | 0 mm | - | - | - |
* Rain latest hour (hover to see other rain measurements)
** Current wind speed in m/s (hover to see current wind gust speed)